sensor_id;sensor_type;location;lat;lon;timestamp;P1;durP1;ratioP1;P2;durP2;ratioP2
32094;SDS011;18608;53.688;10.748;2023-09-30T00:00:25;9.70;;;3.83;;
32094;SDS011;18608;53.688;10.748;2023-09-30T00:02:51;11.07;;;4.03;;
32094;SDS011;18608;53.688;10.748;2023-09-30T00:05:20;15.40;;;4.07;;
32094;SDS011;18608;53.688;10.748;2023-09-30T00:07:46;12.07;;;4.83;;
32094;SDS011;18608;53.688;10.748;2023-09-30T00:10:12;20.30;;;4.37;;
32094;SDS011;18608;53.688;10.748;2023-09-30T00:12:39;13.50;;;4.60;;
32094;SDS011;18608;53.688;10.748;2023-09-30T00:15:05;14.30;;;4.03;;
32094;SDS011;18608;53.688;10.748;2023-09-30T00:17:31;15.03;;;3.70;;
32094;SDS011;18608;53.688;10.748;2023-09-30T00:19:57;28.50;;;5.57;;
32094;SDS011;18608;53.688;10.748;2023-09-30T00:22:24;27.03;;;5.60;;
32094;SDS011;18608;53.688;10.748;2023-09-30T00:24:50;19.50;;;5.67;;
32094;SDS011;18608;53.688;10.748;2023-09-30T00:27:16;16.33;;;5.03;;
32094;SDS011;18608;53.688;10.748;2023-09-30T00:29:42;19.63;;;4.43;;
32094;SDS011;18608;53.688;10.748;2023-09-30T00:32:08;20.87;;;5.43;;
32094;SDS011;18608;53.688;10.748;2023-09-30T00:34:35;18.73;;;4.83;;
32094;SDS011;18608;53.688;10.748;2023-09-30T00:37:01;20.50;;;4.40;;
32094;SDS011;18608;53.688;10.748;2023-09-30T00:39:27;24.60;;;5.00;;
32094;SDS011;18608;53.688;10.748;2023-09-30T00:41:56;16.03;;;3.83;;
32094;SDS011;18608;53.688;10.748;2023-09-30T00:44:23;12.23;;;3.67;;
32094;SDS011;18608;53.688;10.748;2023-09-30T00:46:49;14.53;;;5.20;;
32094;SDS011;18608;53.688;10.748;2023-09-30T00:49:15;32.13;;;4.70;;
32094;SDS011;18608;53.688;10.748;2023-09-30T00:51:43;26.43;;;6.60;;
32094;SDS011;18608;53.688;10.748;2023-09-30T00:54:09;15.63;;;4.60;;
32094;SDS011;18608;53.688;10.748;2023-09-30T00:56:35;27.17;;;5.57;;
32094;SDS011;18608;53.688;10.748;2023-09-30T00:59:07;23.27;;;3.53;;
32094;SDS011;18608;53.688;10.748;2023-09-30T01:01:33;15.57;;;5.37;;
32094;SDS011;18608;53.688;10.748;2023-09-30T01:03:59;24.63;;;6.53;;
32094;SDS011;18608;53.688;10.748;2023-09-30T01:06:34;9.27;;;3.90;;
32094;SDS011;18608;53.688;10.748;2023-09-30T01:09:00;23.13;;;5.17;;
32094;SDS011;18608;53.688;10.748;2023-09-30T01:11:26;19.73;;;5.47;;
32094;SDS011;18608;53.688;10.748;2023-09-30T01:13:51;12.20;;;4.53;;
32094;SDS011;18608;53.688;10.748;2023-09-30T01:16:17;20.03;;;5.40;;
32094;SDS011;18608;53.688;10.748;2023-09-30T01:18:43;17.07;;;4.43;;
32094;SDS011;18608;53.688;10.748;2023-09-30T01:21:09;18.47;;;5.30;;
32094;SDS011;18608;53.688;10.748;2023-09-30T01:23:36;27.97;;;5.30;;
32094;SDS011;18608;53.688;10.748;2023-09-30T01:26:09;14.43;;;4.60;;
32094;SDS011;18608;53.688;10.748;2023-09-30T01:28:36;13.67;;;3.90;;
32094;SDS011;18608;53.688;10.748;2023-09-30T01:31:05;10.23;;;4.70;;
32094;SDS011;18608;53.688;10.748;2023-09-30T01:33:32;13.67;;;4.47;;
32094;SDS011;18608;53.688;10.748;2023-09-30T01:35:58;18.83;;;5.00;;
32094;SDS011;18608;53.688;10.748;2023-09-30T01:38:25;11.33;;;4.23;;
32094;SDS011;18608;53.688;10.748;2023-09-30T01:40:51;14.57;;;5.07;;
32094;SDS011;18608;53.688;10.748;2023-09-30T01:43:19;22.00;;;7.60;;
32094;SDS011;18608;53.688;10.748;2023-09-30T01:45:44;29.60;;;5.00;;
32094;SDS011;18608;53.688;10.748;2023-09-30T01:48:10;21.00;;;6.13;;
32094;SDS011;18608;53.688;10.748;2023-09-30T01:50:37;26.40;;;5.33;;
32094;SDS011;18608;53.688;10.748;2023-09-30T01:53:03;29.33;;;5.40;;
32094;SDS011;18608;53.688;10.748;2023-09-30T01:55:31;21.13;;;5.30;;
32094;SDS011;18608;53.688;10.748;2023-09-30T01:57:57;19.23;;;5.33;;
32094;SDS011;18608;53.688;10.748;2023-09-30T02:00:23;24.40;;;4.83;;
32094;SDS011;18608;53.688;10.748;2023-09-30T02:02:50;8.80;;;4.13;;
32094;SDS011;18608;53.688;10.748;2023-09-30T02:05:16;21.60;;;7.63;;
32094;SDS011;18608;53.688;10.748;2023-09-30T02:07:42;22.97;;;4.97;;
32094;SDS011;18608;53.688;10.748;2023-09-30T02:10:08;15.13;;;5.30;;
32094;SDS011;18608;53.688;10.748;2023-09-30T02:12:34;25.07;;;5.77;;
32094;SDS011;18608;53.688;10.748;2023-09-30T02:15:02;17.83;;;4.23;;
32094;SDS011;18608;53.688;10.748;2023-09-30T02:17:29;14.77;;;4.40;;
32094;SDS011;18608;53.688;10.748;2023-09-30T02:19:55;24.77;;;4.00;;
32094;SDS011;18608;53.688;10.748;2023-09-30T02:22:21;15.23;;;5.37;;
32094;SDS011;18608;53.688;10.748;2023-09-30T02:24:48;16.30;;;4.40;;
32094;SDS011;18608;53.688;10.748;2023-09-30T02:27:14;19.00;;;4.33;;
32094;SDS011;18608;53.688;10.748;2023-09-30T02:29:40;15.20;;;4.90;;
32094;SDS011;18608;53.688;10.748;2023-09-30T02:32:06;15.47;;;5.20;;
32094;SDS011;18608;53.688;10.748;2023-09-30T02:34:32;16.33;;;4.77;;
32094;SDS011;18608;53.688;10.748;2023-09-30T02:36:58;10.90;;;4.70;;
32094;SDS011;18608;53.688;10.748;2023-09-30T02:39:25;13.83;;;4.40;;
32094;SDS011;18608;53.688;10.748;2023-09-30T02:41:54;26.30;;;4.90;;
32094;SDS011;18608;53.688;10.748;2023-09-30T02:44:20;11.80;;;5.40;;
32094;SDS011;18608;53.688;10.748;2023-09-30T02:46:46;21.07;;;5.10;;
32094;SDS011;18608;53.688;10.748;2023-09-30T02:49:12;18.53;;;5.70;;
32094;SDS011;18608;53.688;10.748;2023-09-30T02:51:37;21.40;;;5.67;;
32094;SDS011;18608;53.688;10.748;2023-09-30T02:54:03;19.53;;;6.60;;
32094;SDS011;18608;53.688;10.748;2023-09-30T02:56:30;15.83;;;5.10;;
32094;SDS011;18608;53.688;10.748;2023-09-30T02:58:56;26.50;;;6.20;;
32094;SDS011;18608;53.688;10.748;2023-09-30T03:01:22;21.50;;;5.00;;
32094;SDS011;18608;53.688;10.748;2023-09-30T03:03:48;15.40;;;5.63;;
32094;SDS011;18608;53.688;10.748;2023-09-30T03:06:15;23.73;;;5.33;;
32094;SDS011;18608;53.688;10.748;2023-09-30T03:08:41;16.13;;;4.93;;
32094;SDS011;18608;53.688;10.748;2023-09-30T03:11:07;27.07;;;5.27;;
32094;SDS011;18608;53.688;10.748;2023-09-30T03:13:33;18.43;;;4.30;;
32094;SDS011;18608;53.688;10.748;2023-09-30T03:16:00;14.43;;;4.43;;
32094;SDS011;18608;53.688;10.748;2023-09-30T03:18:29;23.63;;;4.90;;
32094;SDS011;18608;53.688;10.748;2023-09-30T03:20:58;20.10;;;6.57;;
32094;SDS011;18608;53.688;10.748;2023-09-30T03:23:26;13.40;;;6.20;;
32094;SDS011;18608;53.688;10.748;2023-09-30T03:25:58;14.80;;;4.80;;
32094;SDS011;18608;53.688;10.748;2023-09-30T03:28:25;16.93;;;4.53;;
32094;SDS011;18608;53.688;10.748;2023-09-30T03:30:51;16.23;;;4.00;;
32094;SDS011;18608;53.688;10.748;2023-09-30T03:33:17;22.33;;;4.40;;
32094;SDS011;18608;53.688;10.748;2023-09-30T03:35:43;27.33;;;5.40;;
32094;SDS011;18608;53.688;10.748;2023-09-30T03:38:10;14.87;;;4.90;;
32094;SDS011;18608;53.688;10.748;2023-09-30T03:40:37;9.13;;;3.93;;
32094;SDS011;18608;53.688;10.748;2023-09-30T03:43:04;18.60;;;5.13;;
32094;SDS011;18608;53.688;10.748;2023-09-30T03:45:35;16.33;;;4.43;;
32094;SDS011;18608;53.688;10.748;2023-09-30T03:48:04;14.63;;;3.63;;
32094;SDS011;18608;53.688;10.748;2023-09-30T03:50:31;18.50;;;4.53;;
32094;SDS011;18608;53.688;10.748;2023-09-30T03:53:04;12.63;;;4.40;;
32094;SDS011;18608;53.688;10.748;2023-09-30T03:55:32;19.33;;;5.10;;
32094;SDS011;18608;53.688;10.748;2023-09-30T03:57:58;14.83;;;4.80;;
32094;SDS011;18608;53.688;10.748;2023-09-30T04:00:24;18.47;;;5.80;;
32094;SDS011;18608;53.688;10.748;2023-09-30T04:02:50;16.23;;;5.50;;
32094;SDS011;18608;53.688;10.748;2023-09-30T04:05:22;11.97;;;3.63;;
32094;SDS011;18608;53.688;10.748;2023-09-30T04:07:55;13.67;;;4.90;;
32094;SDS011;18608;53.688;10.748;2023-09-30T04:10:21;28.80;;;7.73;;
32094;SDS011;18608;53.688;10.748;2023-09-30T04:12:47;23.00;;;5.17;;
32094;SDS011;18608;53.688;10.748;2023-09-30T04:15:13;24.37;;;7.07;;
32094;SDS011;18608;53.688;10.748;2023-09-30T04:17:40;13.47;;;5.47;;
32094;SDS011;18608;53.688;10.748;2023-09-30T04:20:07;20.47;;;6.20;;
32094;SDS011;18608;53.688;10.748;2023-09-30T04:22:35;22.17;;;6.70;;
32094;SDS011;18608;53.688;10.748;2023-09-30T04:25:01;12.93;;;5.07;;
32094;SDS011;18608;53.688;10.748;2023-09-30T04:27:33;16.40;;;5.77;;
32094;SDS011;18608;53.688;10.748;2023-09-30T04:29:59;13.20;;;4.20;;
32094;SDS011;18608;53.688;10.748;2023-09-30T04:32:35;17.67;;;5.43;;
32094;SDS011;18608;53.688;10.748;2023-09-30T04:35:04;12.00;;;5.00;;
32094;SDS011;18608;53.688;10.748;2023-09-30T04:37:30;8.80;;;4.70;;
32094;SDS011;18608;53.688;10.748;2023-09-30T04:39:56;20.33;;;5.87;;
32094;SDS011;18608;53.688;10.748;2023-09-30T04:42:23;22.37;;;4.37;;
32094;SDS011;18608;53.688;10.748;2023-09-30T04:44:50;16.83;;;6.00;;
32094;SDS011;18608;53.688;10.748;2023-09-30T04:47:16;13.73;;;6.23;;
32094;SDS011;18608;53.688;10.748;2023-09-30T04:49:43;17.50;;;5.20;;
32094;SDS011;18608;53.688;10.748;2023-09-30T04:52:10;11.03;;;4.43;;
32094;SDS011;18608;53.688;10.748;2023-09-30T04:54:36;13.70;;;5.43;;
32094;SDS011;18608;53.688;10.748;2023-09-30T04:57:02;16.33;;;5.63;;
32094;SDS011;18608;53.688;10.748;2023-09-30T04:59:28;15.17;;;6.03;;
32094;SDS011;18608;53.688;10.748;2023-09-30T05:01:54;16.03;;;6.20;;
32094;SDS011;18608;53.688;10.748;2023-09-30T05:04:39;20.00;;;7.13;;
32094;SDS011;18608;53.688;10.748;2023-09-30T05:07:11;28.63;;;5.97;;
32094;SDS011;18608;53.688;10.748;2023-09-30T05:09:38;16.43;;;6.40;;
32094;SDS011;18608;53.688;10.748;2023-09-30T05:12:04;9.27;;;4.57;;
32094;SDS011;18608;53.688;10.748;2023-09-30T05:14:31;19.43;;;6.40;;
32094;SDS011;18608;53.688;10.748;2023-09-30T05:16:56;19.23;;;6.57;;
32094;SDS011;18608;53.688;10.748;2023-09-30T05:19:23;18.87;;;5.47;;
32094;SDS011;18608;53.688;10.748;2023-09-30T05:21:52;20.07;;;7.07;;
32094;SDS011;18608;53.688;10.748;2023-09-30T05:24:18;30.10;;;7.57;;
32094;SDS011;18608;53.688;10.748;2023-09-30T05:26:46;25.03;;;7.87;;
32094;SDS011;18608;53.688;10.748;2023-09-30T05:29:12;20.97;;;8.00;;
32094;SDS011;18608;53.688;10.748;2023-09-30T05:31:38;21.17;;;7.53;;
32094;SDS011;18608;53.688;10.748;2023-09-30T05:34:04;16.70;;;6.27;;
32094;SDS011;18608;53.688;10.748;2023-09-30T05:36:29;24.63;;;7.30;;
32094;SDS011;18608;53.688;10.748;2023-09-30T05:38:55;18.53;;;6.70;;
32094;SDS011;18608;53.688;10.748;2023-09-30T05:41:24;20.90;;;6.80;;
32094;SDS011;18608;53.688;10.748;2023-09-30T05:43:51;23.20;;;7.30;;
32094;SDS011;18608;53.688;10.748;2023-09-30T05:46:18;24.57;;;7.57;;
32094;SDS011;18608;53.688;10.748;2023-09-30T05:48:44;21.43;;;6.90;;
32094;SDS011;18608;53.688;10.748;2023-09-30T05:51:10;16.33;;;7.20;;
32094;SDS011;18608;53.688;10.748;2023-09-30T05:53:39;18.10;;;8.43;;
32094;SDS011;18608;53.688;10.748;2023-09-30T05:56:06;24.00;;;7.50;;
32094;SDS011;18608;53.688;10.748;2023-09-30T05:58:32;28.37;;;7.50;;
32094;SDS011;18608;53.688;10.748;2023-09-30T06:00:58;24.40;;;7.77;;
32094;SDS011;18608;53.688;10.748;2023-09-30T06:03:27;28.90;;;7.70;;
32094;SDS011;18608;53.688;10.748;2023-09-30T06:05:54;18.00;;;7.50;;
32094;SDS011;18608;53.688;10.748;2023-09-30T06:08:21;18.93;;;7.90;;
32094;SDS011;18608;53.688;10.748;2023-09-30T06:10:47;18.07;;;6.60;;
32094;SDS011;18608;53.688;10.748;2023-09-30T06:13:13;27.43;;;7.83;;
32094;SDS011;18608;53.688;10.748;2023-09-30T06:15:41;29.27;;;6.73;;
32094;SDS011;18608;53.688;10.748;2023-09-30T06:36:17;19.47;;;7.77;;
32094;SDS011;18608;53.688;10.748;2023-09-30T06:38:45;18.33;;;6.73;;
32094;SDS011;18608;53.688;10.748;2023-09-30T06:41:16;21.37;;;6.83;;
32094;SDS011;18608;53.688;10.748;2023-09-30T06:43:42;18.30;;;7.23;;
32094;SDS011;18608;53.688;10.748;2023-09-30T06:46:08;16.60;;;6.30;;
32094;SDS011;18608;53.688;10.748;2023-09-30T06:48:35;18.27;;;7.17;;
32094;SDS011;18608;53.688;10.748;2023-09-30T06:51:01;38.07;;;7.40;;
32094;SDS011;18608;53.688;10.748;2023-09-30T06:53:27;24.93;;;7.73;;
32094;SDS011;18608;53.688;10.748;2023-09-30T06:55:53;23.73;;;6.40;;
32094;SDS011;18608;53.688;10.748;2023-09-30T06:58:20;14.17;;;5.70;;
32094;SDS011;18608;53.688;10.748;2023-09-30T07:00:52;17.60;;;5.80;;
32094;SDS011;18608;53.688;10.748;2023-09-30T07:03:21;14.37;;;6.40;;
32094;SDS011;18608;53.688;10.748;2023-09-30T07:05:47;17.93;;;6.10;;
32094;SDS011;18608;53.688;10.748;2023-09-30T07:08:19;20.40;;;6.83;;
32094;SDS011;18608;53.688;10.748;2023-09-30T07:31:25;11.83;;;4.37;;
32094;SDS011;18608;53.688;10.748;2023-09-30T07:33:51;16.10;;;7.40;;
32094;SDS011;18608;53.688;10.748;2023-09-30T07:36:17;14.77;;;5.90;;
32094;SDS011;18608;53.688;10.748;2023-09-30T07:38:43;16.30;;;6.43;;
32094;SDS011;18608;53.688;10.748;2023-09-30T07:41:09;10.40;;;4.83;;
32094;SDS011;18608;53.688;10.748;2023-09-30T07:43:35;9.10;;;4.93;;
32094;SDS011;18608;53.688;10.748;2023-09-30T07:46:07;12.53;;;4.77;;
32094;SDS011;18608;53.688;10.748;2023-09-30T07:48:33;12.40;;;4.40;;
32094;SDS011;18608;53.688;10.748;2023-09-30T07:51:00;19.73;;;5.70;;
32094;SDS011;18608;53.688;10.748;2023-09-30T07:53:26;15.40;;;4.83;;
32094;SDS011;18608;53.688;10.748;2023-09-30T07:55:52;11.83;;;4.27;;
32094;SDS011;18608;53.688;10.748;2023-09-30T07:58:19;17.40;;;4.30;;
32094;SDS011;18608;53.688;10.748;2023-09-30T08:00:45;7.67;;;3.67;;
32094;SDS011;18608;53.688;10.748;2023-09-30T08:03:12;13.53;;;4.30;;
32094;SDS011;18608;53.688;10.748;2023-09-30T08:05:38;18.60;;;4.40;;
32094;SDS011;18608;53.688;10.748;2023-09-30T08:08:04;12.80;;;4.77;;
32094;SDS011;18608;53.688;10.748;2023-09-30T08:10:31;14.93;;;4.87;;
32094;SDS011;18608;53.688;10.748;2023-09-30T08:12:57;16.23;;;5.33;;
32094;SDS011;18608;53.688;10.748;2023-09-30T08:15:27;17.37;;;5.17;;
32094;SDS011;18608;53.688;10.748;2023-09-30T08:17:52;13.33;;;4.07;;
32094;SDS011;18608;53.688;10.748;2023-09-30T08:20:18;16.90;;;4.00;;
32094;SDS011;18608;53.688;10.748;2023-09-30T08:22:44;10.83;;;3.47;;
32094;SDS011;18608;53.688;10.748;2023-09-30T08:25:12;19.50;;;4.20;;
32094;SDS011;18608;53.688;10.748;2023-09-30T08:27:38;8.13;;;3.97;;
32094;SDS011;18608;53.688;10.748;2023-09-30T08:30:04;8.00;;;3.77;;
32094;SDS011;18608;53.688;10.748;2023-09-30T08:32:39;11.87;;;3.77;;
32094;SDS011;18608;53.688;10.748;2023-09-30T08:35:04;12.30;;;4.03;;
32094;SDS011;18608;53.688;10.748;2023-09-30T08:37:31;8.67;;;3.63;;
32094;SDS011;18608;53.688;10.748;2023-09-30T08:39:58;17.30;;;4.40;;
32094;SDS011;18608;53.688;10.748;2023-09-30T08:42:24;12.93;;;3.87;;
32094;SDS011;18608;53.688;10.748;2023-09-30T08:44:57;17.30;;;5.23;;
32094;SDS011;18608;53.688;10.748;2023-09-30T08:47:27;18.97;;;4.00;;
32094;SDS011;18608;53.688;10.748;2023-09-30T08:49:53;13.80;;;3.40;;
32094;SDS011;18608;53.688;10.748;2023-09-30T08:52:23;18.33;;;3.93;;
32094;SDS011;18608;53.688;10.748;2023-09-30T08:54:49;11.37;;;3.47;;
32094;SDS011;18608;53.688;10.748;2023-09-30T08:57:14;11.63;;;3.00;;
32094;SDS011;18608;53.688;10.748;2023-09-30T08:59:44;13.20;;;3.40;;
32094;SDS011;18608;53.688;10.748;2023-09-30T09:02:14;16.23;;;3.60;;
32094;SDS011;18608;53.688;10.748;2023-09-30T09:04:40;11.50;;;3.07;;
32094;SDS011;18608;53.688;10.748;2023-09-30T09:07:06;6.03;;;3.13;;
32094;SDS011;18608;53.688;10.748;2023-09-30T09:09:32;10.50;;;3.20;;
32094;SDS011;18608;53.688;10.748;2023-09-30T09:11:58;15.30;;;4.10;;
32094;SDS011;18608;53.688;10.748;2023-09-30T09:14:40;8.40;;;3.13;;
32094;SDS011;18608;53.688;10.748;2023-09-30T09:17:08;12.57;;;3.37;;
32094;SDS011;18608;53.688;10.748;2023-09-30T09:19:35;8.87;;;3.20;;
32094;SDS011;18608;53.688;10.748;2023-09-30T09:22:02;9.80;;;3.20;;
32094;SDS011;18608;53.688;10.748;2023-09-30T09:24:35;10.10;;;2.87;;
32094;SDS011;18608;53.688;10.748;2023-09-30T09:27:08;10.13;;;3.37;;
32094;SDS011;18608;53.688;10.748;2023-09-30T09:29:35;9.23;;;2.97;;
32094;SDS011;18608;53.688;10.748;2023-09-30T09:32:08;12.30;;;3.63;;
32094;SDS011;18608;53.688;10.748;2023-09-30T09:34:42;13.23;;;2.83;;
32094;SDS011;18608;53.688;10.748;2023-09-30T09:37:18;15.87;;;3.23;;
32094;SDS011;18608;53.688;10.748;2023-09-30T09:39:52;13.33;;;3.20;;
32094;SDS011;18608;53.688;10.748;2023-09-30T09:42:23;13.37;;;3.70;;
32094;SDS011;18608;53.688;10.748;2023-09-30T09:44:51;11.77;;;3.33;;
32094;SDS011;18608;53.688;10.748;2023-09-30T09:47:21;20.73;;;3.20;;
32094;SDS011;18608;53.688;10.748;2023-09-30T09:49:47;16.13;;;3.40;;
32094;SDS011;18608;53.688;10.748;2023-09-30T09:52:14;8.13;;;2.00;;
32094;SDS011;18608;53.688;10.748;2023-09-30T09:54:41;9.70;;;4.27;;
32094;SDS011;18608;53.688;10.748;2023-09-30T09:57:09;14.17;;;3.20;;
32094;SDS011;18608;53.688;10.748;2023-09-30T09:59:39;16.87;;;2.70;;
32094;SDS011;18608;53.688;10.748;2023-09-30T10:02:11;11.50;;;2.77;;
32094;SDS011;18608;53.688;10.748;2023-09-30T10:04:41;9.53;;;2.00;;
32094;SDS011;18608;53.688;10.748;2023-09-30T10:07:09;13.93;;;3.83;;
32094;SDS011;18608;53.688;10.748;2023-09-30T10:09:39;7.43;;;2.03;;
32094;SDS011;18608;53.688;10.748;2023-09-30T10:12:11;11.53;;;3.20;;
32094;SDS011;18608;53.688;10.748;2023-09-30T10:14:38;17.63;;;2.40;;
32094;SDS011;18608;53.688;10.748;2023-09-30T10:17:04;12.00;;;2.20;;
32094;SDS011;18608;53.688;10.748;2023-09-30T10:19:30;9.30;;;3.10;;
32094;SDS011;18608;53.688;10.748;2023-09-30T10:24:42;7.30;;;4.10;;
32094;SDS011;18608;53.688;10.748;2023-09-30T10:40:50;12.57;;;2.17;;
32094;SDS011;18608;53.688;10.748;2023-09-30T10:43:29;9.30;;;2.70;;
32094;SDS011;18608;53.688;10.748;2023-09-30T10:45:59;6.73;;;2.60;;
32094;SDS011;18608;53.688;10.748;2023-09-30T10:50:52;20.97;;;5.00;;
32094;SDS011;18608;53.688;10.748;2023-09-30T10:53:24;10.87;;;1.73;;
32094;SDS011;18608;53.688;10.748;2023-09-30T10:55:58;11.40;;;2.60;;
32094;SDS011;18608;53.688;10.748;2023-09-30T11:01:14;6.30;;;1.50;;
32094;SDS011;18608;53.688;10.748;2023-09-30T11:03:41;7.27;;;2.07;;
32094;SDS011;18608;53.688;10.748;2023-09-30T11:06:10;6.53;;;2.03;;
32094;SDS011;18608;53.688;10.748;2023-09-30T11:08:47;14.17;;;2.30;;
32094;SDS011;18608;53.688;10.748;2023-09-30T11:11:15;7.43;;;1.77;;
32094;SDS011;18608;53.688;10.748;2023-09-30T11:13:42;5.83;;;2.40;;
32094;SDS011;18608;53.688;10.748;2023-09-30T11:16:08;8.33;;;2.13;;
32094;SDS011;18608;53.688;10.748;2023-09-30T11:18:34;7.60;;;2.10;;
32094;SDS011;18608;53.688;10.748;2023-09-30T11:21:12;10.93;;;2.77;;
32094;SDS011;18608;53.688;10.748;2023-09-30T11:23:40;13.23;;;2.03;;
32094;SDS011;18608;53.688;10.748;2023-09-30T11:26:06;5.07;;;1.33;;
32094;SDS011;18608;53.688;10.748;2023-09-30T11:28:36;6.70;;;1.73;;
32094;SDS011;18608;53.688;10.748;2023-09-30T11:31:06;11.23;;;2.40;;
32094;SDS011;18608;53.688;10.748;2023-09-30T11:33:49;8.63;;;1.60;;
32094;SDS011;18608;53.688;10.748;2023-09-30T11:36:22;4.03;;;2.30;;
32094;SDS011;18608;53.688;10.748;2023-09-30T11:38:49;9.60;;;2.00;;
32094;SDS011;18608;53.688;10.748;2023-09-30T11:41:17;11.90;;;2.20;;
32094;SDS011;18608;53.688;10.748;2023-09-30T11:44:00;6.20;;;1.87;;
32094;SDS011;18608;53.688;10.748;2023-09-30T11:46:29;7.30;;;1.60;;
32094;SDS011;18608;53.688;10.748;2023-09-30T11:48:59;5.90;;;1.87;;
32094;SDS011;18608;53.688;10.748;2023-09-30T11:51:27;7.33;;;1.77;;
32094;SDS011;18608;53.688;10.748;2023-09-30T11:53:53;8.60;;;1.97;;
32094;SDS011;18608;53.688;10.748;2023-09-30T11:56:20;9.23;;;2.20;;
32094;SDS011;18608;53.688;10.748;2023-09-30T11:58:47;14.97;;;1.70;;
32094;SDS011;18608;53.688;10.748;2023-09-30T12:01:13;12.47;;;3.60;;
32094;SDS011;18608;53.688;10.748;2023-09-30T12:03:39;11.37;;;2.83;;
32094;SDS011;18608;53.688;10.748;2023-09-30T12:06:07;4.47;;;2.20;;
32094;SDS011;18608;53.688;10.748;2023-09-30T12:08:33;8.03;;;1.73;;
32094;SDS011;18608;53.688;10.748;2023-09-30T12:10:59;5.97;;;2.07;;
32094;SDS011;18608;53.688;10.748;2023-09-30T12:13:25;3.53;;;1.57;;
32094;SDS011;18608;53.688;10.748;2023-09-30T12:15:51;7.10;;;1.90;;
32094;SDS011;18608;53.688;10.748;2023-09-30T12:18:22;10.70;;;2.77;;
32094;SDS011;18608;53.688;10.748;2023-09-30T12:20:49;6.10;;;1.87;;
32094;SDS011;18608;53.688;10.748;2023-09-30T12:23:17;7.03;;;1.87;;
32094;SDS011;18608;53.688;10.748;2023-09-30T12:25:43;8.77;;;2.13;;
32094;SDS011;18608;53.688;10.748;2023-09-30T12:28:09;11.00;;;1.73;;
32094;SDS011;18608;53.688;10.748;2023-09-30T12:30:35;6.83;;;1.83;;
32094;SDS011;18608;53.688;10.748;2023-09-30T12:33:01;6.70;;;1.90;;
32094;SDS011;18608;53.688;10.748;2023-09-30T12:35:27;7.57;;;1.77;;
32094;SDS011;18608;53.688;10.748;2023-09-30T12:37:53;13.83;;;1.60;;
32094;SDS011;18608;53.688;10.748;2023-09-30T12:40:19;15.07;;;2.20;;
32094;SDS011;18608;53.688;10.748;2023-09-30T12:42:45;6.83;;;1.90;;
32094;SDS011;18608;53.688;10.748;2023-09-30T12:45:12;6.90;;;1.50;;
32094;SDS011;18608;53.688;10.748;2023-09-30T12:47:38;4.20;;;1.70;;
32094;SDS011;18608;53.688;10.748;2023-09-30T12:50:04;5.97;;;1.30;;
32094;SDS011;18608;53.688;10.748;2023-09-30T12:52:33;6.77;;;2.20;;
32094;SDS011;18608;53.688;10.748;2023-09-30T12:54:59;9.53;;;1.63;;
32094;SDS011;18608;53.688;10.748;2023-09-30T12:57:25;7.23;;;2.63;;
32094;SDS011;18608;53.688;10.748;2023-09-30T12:59:51;4.97;;;1.90;;
32094;SDS011;18608;53.688;10.748;2023-09-30T13:02:18;8.53;;;3.27;;
32094;SDS011;18608;53.688;10.748;2023-09-30T13:04:44;8.53;;;2.20;;
32094;SDS011;18608;53.688;10.748;2023-09-30T13:07:10;6.83;;;1.87;;
32094;SDS011;18608;53.688;10.748;2023-09-30T13:09:37;5.40;;;1.60;;
32094;SDS011;18608;53.688;10.748;2023-09-30T13:12:04;4.40;;;2.03;;
32094;SDS011;18608;53.688;10.748;2023-09-30T13:14:30;9.50;;;1.67;;
32094;SDS011;18608;53.688;10.748;2023-09-30T13:16:56;12.20;;;1.87;;
32094;SDS011;18608;53.688;10.748;2023-09-30T13:19:22;7.70;;;1.80;;
32094;SDS011;18608;53.688;10.748;2023-09-30T13:21:49;2.93;;;1.53;;
32094;SDS011;18608;53.688;10.748;2023-09-30T13:24:24;6.23;;;1.60;;
32094;SDS011;18608;53.688;10.748;2023-09-30T13:26:51;8.70;;;1.83;;
32094;SDS011;18608;53.688;10.748;2023-09-30T13:29:18;6.70;;;2.57;;
32094;SDS011;18608;53.688;10.748;2023-09-30T13:31:44;6.57;;;1.97;;
32094;SDS011;18608;53.688;10.748;2023-09-30T13:34:10;11.03;;;1.97;;
32094;SDS011;18608;53.688;10.748;2023-09-30T13:36:39;4.83;;;2.27;;
32094;SDS011;18608;53.688;10.748;2023-09-30T13:39:05;17.50;;;2.00;;
32094;SDS011;18608;53.688;10.748;2023-09-30T13:41:34;4.70;;;2.40;;
32094;SDS011;18608;53.688;10.748;2023-09-30T13:44:00;4.70;;;1.73;;
32094;SDS011;18608;53.688;10.748;2023-09-30T13:46:27;10.33;;;2.03;;
32094;SDS011;18608;53.688;10.748;2023-09-30T13:48:54;14.47;;;2.60;;
32094;SDS011;18608;53.688;10.748;2023-09-30T13:51:20;4.13;;;2.00;;
32094;SDS011;18608;53.688;10.748;2023-09-30T13:53:47;6.03;;;2.00;;
32094;SDS011;18608;53.688;10.748;2023-09-30T13:56:13;17.83;;;2.00;;
32094;SDS011;18608;53.688;10.748;2023-09-30T13:58:39;5.97;;;1.97;;
32094;SDS011;18608;53.688;10.748;2023-09-30T14:01:05;6.13;;;1.90;;
32094;SDS011;18608;53.688;10.748;2023-09-30T14:03:31;8.77;;;2.50;;
32094;SDS011;18608;53.688;10.748;2023-09-30T14:05:58;9.03;;;4.30;;
32094;SDS011;18608;53.688;10.748;2023-09-30T14:08:25;17.60;;;2.73;;
32094;SDS011;18608;53.688;10.748;2023-09-30T14:10:51;6.47;;;1.67;;
32094;SDS011;18608;53.688;10.748;2023-09-30T14:13:17;5.53;;;1.63;;
32094;SDS011;18608;53.688;10.748;2023-09-30T14:15:43;4.50;;;1.97;;
32094;SDS011;18608;53.688;10.748;2023-09-30T14:18:10;4.10;;;2.03;;
32094;SDS011;18608;53.688;10.748;2023-09-30T14:20:36;11.23;;;2.37;;
32094;SDS011;18608;53.688;10.748;2023-09-30T14:23:02;10.07;;;2.10;;
32094;SDS011;18608;53.688;10.748;2023-09-30T14:25:28;6.43;;;2.00;;
32094;SDS011;18608;53.688;10.748;2023-09-30T14:27:54;4.13;;;1.63;;
32094;SDS011;18608;53.688;10.748;2023-09-30T14:30:21;8.80;;;2.10;;
32094;SDS011;18608;53.688;10.748;2023-09-30T14:32:49;7.00;;;2.17;;
32094;SDS011;18608;53.688;10.748;2023-09-30T14:35:15;10.17;;;2.90;;
32094;SDS011;18608;53.688;10.748;2023-09-30T14:37:41;3.73;;;1.53;;
32094;SDS011;18608;53.688;10.748;2023-09-30T14:40:07;6.63;;;1.70;;
32094;SDS011;18608;53.688;10.748;2023-09-30T14:42:36;4.10;;;2.17;;
32094;SDS011;18608;53.688;10.748;2023-09-30T14:45:02;8.10;;;2.27;;
32094;SDS011;18608;53.688;10.748;2023-09-30T14:47:28;4.13;;;2.20;;
32094;SDS011;18608;53.688;10.748;2023-09-30T14:49:54;5.13;;;1.53;;
32094;SDS011;18608;53.688;10.748;2023-09-30T14:52:21;14.43;;;2.43;;
32094;SDS011;18608;53.688;10.748;2023-09-30T14:54:46;9.57;;;2.37;;
32094;SDS011;18608;53.688;10.748;2023-09-30T14:57:12;3.63;;;2.07;;
32094;SDS011;18608;53.688;10.748;2023-09-30T14:59:40;29.03;;;19.83;;
32094;SDS011;18608;53.688;10.748;2023-09-30T15:02:06;24.90;;;13.93;;
32094;SDS011;18608;53.688;10.748;2023-09-30T15:04:34;19.40;;;14.90;;
32094;SDS011;18608;53.688;10.748;2023-09-30T15:06:59;40.27;;;36.33;;
32094;SDS011;18608;53.688;10.748;2023-09-30T15:09:26;22.97;;;9.37;;
32094;SDS011;18608;53.688;10.748;2023-09-30T15:11:52;9.10;;;6.47;;
32094;SDS011;18608;53.688;10.748;2023-09-30T15:14:18;23.13;;;15.30;;
32094;SDS011;18608;53.688;10.748;2023-09-30T15:16:44;35.40;;;26.60;;
32094;SDS011;18608;53.688;10.748;2023-09-30T15:19:10;31.67;;;19.43;;
32094;SDS011;18608;53.688;10.748;2023-09-30T15:21:36;45.77;;;32.67;;
32094;SDS011;18608;53.688;10.748;2023-09-30T15:24:03;80.23;;;40.37;;
32094;SDS011;18608;53.688;10.748;2023-09-30T15:26:29;132.83;;;101.00;;